If you wish to contribute or participate in the discussions about articles you are invited to join SKYbrary as a registered user

 Actions

Bluefields Airport

From SKYbrary Wiki

MNBL /
Revision as of 14:11, 1 August 2018 by Editor1 (talk | contribs) (Created page with "{{Airport |Airport_Name=Bluefields Airport |ICAO_Region=CARSAM |ICAO_Territory=MN |IATA Code=BLU |Elevation=41ft |Location=Santa Rosa |Main city served=Bluefields |ISO_Subdivi...")
(diff) ← Older revision | Latest revision (diff) | Newer revision → (diff)
Airport
ICAO: MNBL – IATA: BLU
Summary
Name Bluefields Airport
Region South America and Caribbean
Territory Nicaragua NI.gif
Location Santa Rosa, South Caribbean Coast Autonomous Region
Serving Bluefields
Elevation 12.497 m
41 ft12.497 m
Coordinates 11° 59' 31.00" N, 83° 46' 21.00" W
Runways
Designator Length Width Surface ROPS
5/23 2019 m6,624.016 ft
30 m98.425 ft
ASP /


METAR
Observation MNBL 111300Z 33004KT 4000 RA BKN016 SCT060 25/24 Q1011
Station Bluefields
Date/Time 11 November 2019 13:00:00
Wind direction 330°
Wind speed 04 kts
Lowest cloud amount broken clouds
Temperature 25°C
Dew point 24°C
Humidity 94%
QNH 1011 hPa
Weather condition n/a

Bluefields International Airport is an airport that serves Bluefields, Nicaragua.

Climatology

Tropical rainforest climate (Köppen climate classification Af)

Maps

Terrain

Loading map...

Airport Layout

Loading map...


Accidents & Serious Incidents at or in vicinity of MNBL

None on SKYbrary